createdAt,value
2018-12-01T00:00:21.866Z,7.80
2018-12-01T00:02:50.755Z,7.80
2018-12-01T00:05:19.310Z,7.90
2018-12-01T00:07:48.495Z,7.90
2018-12-01T00:10:17.091Z,7.90
2018-12-01T00:12:45.658Z,7.90
2018-12-01T00:15:15.698Z,8.00
2018-12-01T00:17:44.255Z,8.00
2018-12-01T00:20:14.336Z,8.00
2018-12-01T00:22:42.895Z,8.00
2018-12-01T00:25:11.452Z,8.00
2018-12-01T00:27:40.038Z,8.10
2018-12-01T00:30:17.219Z,7.90
2018-12-01T00:32:47.971Z,7.90
2018-12-01T00:35:16.530Z,7.80
2018-12-01T00:37:45.103Z,7.90
2018-12-01T00:40:17.491Z,7.80
2018-12-01T00:42:46.067Z,7.80
2018-12-01T00:45:15.679Z,7.80
2018-12-01T00:47:45.409Z,7.60
2018-12-01T00:50:17.619Z,7.60
2018-12-01T00:52:46.996Z,7.70
2018-12-01T00:55:16.599Z,7.70
2018-12-01T00:57:45.179Z,7.70
2018-12-01T01:00:16.678Z,7.80
2018-12-01T01:02:51.811Z,7.90
2018-12-01T01:05:21.374Z,7.80
2018-12-01T01:07:49.998Z,7.90
2018-12-01T01:10:19.047Z,8.00
2018-12-01T01:12:47.736Z,7.70
2018-12-01T01:15:16.353Z,7.50
2018-12-01T01:17:44.935Z,7.70
2018-12-01T01:20:15.656Z,7.70
2018-12-01T01:22:44.520Z,7.80
2018-12-01T01:25:13.544Z,7.80
2018-12-01T01:27:42.163Z,7.70
2018-12-01T01:30:17.990Z,7.70
2018-12-01T01:32:46.743Z,7.70
2018-12-01T01:35:15.334Z,7.80
2018-12-01T01:37:43.872Z,7.80
2018-12-01T01:40:15.195Z,7.90
2018-12-01T01:42:43.863Z,8.00
2018-12-01T01:45:15.663Z,7.90
2018-12-01T01:47:44.207Z,7.80
2018-12-01T01:50:13.952Z,7.80
2018-12-01T01:52:43.527Z,7.90
2018-12-01T01:55:12.571Z,8.00
2018-12-01T01:57:41.506Z,8.00
2018-12-01T02:00:15.552Z,7.90
2018-12-01T02:02:47.889Z,7.90
2018-12-01T02:05:17.110Z,8.10
2018-12-01T02:07:45.727Z,8.20
2018-12-01T02:10:15.404Z,8.30
2018-12-01T02:12:43.958Z,8.40
2018-12-01T02:15:13.317Z,8.40
2018-12-01T02:17:41.875Z,8.30
2018-12-01T02:20:15.335Z,8.30
2018-12-01T02:22:44.039Z,8.30
2018-12-01T02:25:13.680Z,8.30
2018-12-01T02:27:42.326Z,8.30
2018-12-01T02:30:13.808Z,8.30
2018-12-01T02:32:42.478Z,8.30
2018-12-01T02:35:12.623Z,8.30
2018-12-01T02:37:41.168Z,8.30
2018-12-01T02:40:11.797Z,8.20
2018-12-01T02:42:40.904Z,8.20
2018-12-01T02:45:20.867Z,8.30
2018-12-01T02:47:49.392Z,8.30
2018-12-01T02:50:23.395Z,8.30
2018-12-01T02:52:53.894Z,8.20
2018-12-01T02:55:22.526Z,8.30
2018-12-01T02:57:51.058Z,8.30
2018-12-01T03:00:19.625Z,8.30
2018-12-01T03:02:48.168Z,8.40
2018-12-01T03:05:16.770Z,8.50
2018-12-01T03:07:45.334Z,8.50
2018-12-01T03:10:14.915Z,8.50
2018-12-01T03:12:43.516Z,8.50
2018-12-01T03:15:13.890Z,8.60
2018-12-01T03:17:42.427Z,8.70
2018-12-01T03:20:13.262Z,8.60
2018-12-01T03:22:41.803Z,8.60
2018-12-01T03:25:16.529Z,8.60
2018-12-01T03:27:45.224Z,8.50
2018-12-01T03:30:13.824Z,8.50
2018-12-01T03:32:42.348Z,8.60
2018-12-01T03:35:12.927Z,8.60
2018-12-01T03:37:42.871Z,8.50
2018-12-01T03:40:12.352Z,8.50
2018-12-01T03:42:41.060Z,8.60
2018-12-01T03:45:12.706Z,8.60
2018-12-01T03:47:41.248Z,8.60
2018-12-01T03:50:11.183Z,8.50
2018-12-01T03:52:39.907Z,8.60
2018-12-01T03:55:20.076Z,8.60
2018-12-01T03:57:48.595Z,8.60
2018-12-01T04:00:17.147Z,8.50
2018-12-01T04:02:45.688Z,8.40
2018-12-01T04:05:14.191Z,8.50
2018-12-01T04:07:42.732Z,8.50
2018-12-01T04:10:11.223Z,8.50
2018-12-01T04:12:39.744Z,8.70
2018-12-01T04:15:08.328Z,8.60
2018-12-01T04:17:36.839Z,8.60
2018-12-01T04:20:06.216Z,8.70
2018-12-01T04:22:34.756Z,8.60
2018-12-01T04:25:03.287Z,8.60
2018-12-01T04:27:31.804Z,8.60
2018-12-01T04:30:00.290Z,8.60
2018-12-01T04:32:28.902Z,8.70
2018-12-01T04:34:57.420Z,8.70
2018-12-01T04:37:25.935Z,8.70
2018-12-01T04:39:54.430Z,8.70
2018-12-01T04:42:22.972Z,8.70
2018-12-01T04:44:51.451Z,8.70
2018-12-01T04:47:19.960Z,8.70
2018-12-01T04:49:48.456Z,8.70
2018-12-01T04:52:16.940Z,8.70
2018-12-01T04:54:45.452Z,8.70
2018-12-01T04:57:13.943Z,8.70
2018-12-01T04:59:42.460Z,8.80
2018-12-01T05:02:10.945Z,8.80
2018-12-01T05:04:39.463Z,8.70
2018-12-01T05:07:08.044Z,8.70
2018-12-01T05:09:36.587Z,8.70
2018-12-01T05:12:05.943Z,8.60
2018-12-01T05:14:34.487Z,8.70
2018-12-01T05:17:03.003Z,8.70
2018-12-01T05:19:31.540Z,8.60
2018-12-01T05:22:00.091Z,8.70
2018-12-01T05:24:28.632Z,8.70
2018-12-01T05:26:57.165Z,8.70
2018-12-01T05:29:25.705Z,8.70
2018-12-01T05:31:54.237Z,8.70
2018-12-01T05:34:22.835Z,8.60
2018-12-01T05:36:51.366Z,8.60
2018-12-01T05:39:19.927Z,8.60
2018-12-01T05:41:48.443Z,8.70
2018-12-01T05:44:16.984Z,8.80
2018-12-01T05:46:45.516Z,8.70
2018-12-01T05:49:14.075Z,8.70
2018-12-01T05:51:42.580Z,8.70
2018-12-01T05:54:11.123Z,8.70
2018-12-01T05:56:39.659Z,8.60
2018-12-01T05:59:08.211Z,8.50
2018-12-01T06:01:36.739Z,8.50
2018-12-01T06:04:05.831Z,8.50
2018-12-01T06:06:34.462Z,8.50
2018-12-01T06:09:03.177Z,8.60
2018-12-01T06:11:31.736Z,8.50
2018-12-01T06:14:00.288Z,8.50
2018-12-01T06:16:28.800Z,8.60
2018-12-01T06:18:57.358Z,8.50
2018-12-01T06:21:25.882Z,8.50
2018-12-01T06:23:54.429Z,8.50
2018-12-01T06:26:22.950Z,8.60
2018-12-01T06:28:51.527Z,8.50
2018-12-01T06:31:20.064Z,8.50
2018-12-01T06:33:48.612Z,8.50
2018-12-01T06:36:17.131Z,8.50
2018-12-01T06:38:45.689Z,8.50
2018-12-01T06:41:14.256Z,8.40
2018-12-01T06:43:42.788Z,8.30
2018-12-01T06:46:11.541Z,8.40
2018-12-01T06:48:40.069Z,8.40
2018-12-01T06:51:08.627Z,8.40
2018-12-01T06:53:37.150Z,8.40
2018-12-01T06:56:05.880Z,8.40
2018-12-01T06:58:34.399Z,8.40
2018-12-01T07:01:02.948Z,8.40
2018-12-01T07:03:31.482Z,8.40
2018-12-01T07:06:00.651Z,8.40
2018-12-01T07:08:29.255Z,8.40
2018-12-01T07:10:57.804Z,8.40
2018-12-01T07:13:26.333Z,8.50
2018-12-01T07:15:54.924Z,8.40
2018-12-01T07:18:34.735Z,8.40
2018-12-01T07:21:03.679Z,8.50
2018-12-01T07:23:32.195Z,8.50
2018-12-01T07:26:00.739Z,8.40
2018-12-01T07:28:29.265Z,8.50
2018-12-01T07:30:57.819Z,8.40
2018-12-01T07:33:26.401Z,8.60
2018-12-01T07:35:54.948Z,8.60
2018-12-01T07:38:23.477Z,8.60
2018-12-01T07:40:52.022Z,8.70
2018-12-01T07:43:20.552Z,8.70
2018-12-01T07:45:49.119Z,8.80
2018-12-01T07:48:17.641Z,8.80
2018-12-01T07:50:46.195Z,8.80
2018-12-01T07:53:17.461Z,8.80
2018-12-01T07:55:43.413Z,8.80
2018-12-01T07:58:11.935Z,8.90
2018-12-01T08:00:40.553Z,9.00
2018-12-01T08:03:09.079Z,9.10
2018-12-01T08:05:37.599Z,9.00
2018-12-01T08:08:06.324Z,9.00
2018-12-01T08:10:34.859Z,9.10
2018-12-01T08:13:03.416Z,9.10
2018-12-01T08:15:31.959Z,9.00
2018-12-01T08:18:00.499Z,9.00
2018-12-01T08:20:29.007Z,8.90
2018-12-01T08:22:58.288Z,8.90
2018-12-01T08:25:26.823Z,8.90
2018-12-01T08:27:56.855Z,9.00
2018-12-01T08:30:29.832Z,9.00
2018-12-01T08:32:58.483Z,9.10
2018-12-01T08:35:29.951Z,9.20
2018-12-01T08:37:58.516Z,9.20
2018-12-01T08:40:28.356Z,9.10
2018-12-01T08:42:57.066Z,9.20
2018-12-01T08:45:25.605Z,9.30
2018-12-01T08:47:54.156Z,9.30
2018-12-01T08:50:23.714Z,9.30
2018-12-01T08:52:53.031Z,9.20
2018-12-01T08:55:22.920Z,9.30
2018-12-01T08:57:52.137Z,9.40
2018-12-01T09:00:30.776Z,9.60
2018-12-01T09:03:06.484Z,9.70
2018-12-01T09:05:35.005Z,9.50
2018-12-01T09:08:03.586Z,9.50
2018-12-01T09:10:32.114Z,9.60
2018-12-01T09:13:01.739Z,9.70
2018-12-01T09:15:29.272Z,9.80
2018-12-01T09:17:57.835Z,9.80
2018-12-01T09:20:26.367Z,9.70
2018-12-01T09:22:55.924Z,9.80
2018-12-01T09:25:24.459Z,9.90
2018-12-01T09:27:52.970Z,9.90
2018-12-01T09:30:22.887Z,9.80
2018-12-01T09:32:51.411Z,10.00
2018-12-01T09:35:19.983Z,10.00
2018-12-01T09:37:48.512Z,10.00
2018-12-01T09:40:18.238Z,10.20
2018-12-01T09:42:47.123Z,10.20
2018-12-01T09:45:18.707Z,10.10
2018-12-01T09:47:48.484Z,9.90
2018-12-01T09:50:17.197Z,9.80
2018-12-01T09:52:47.131Z,9.90
2018-12-01T09:55:17.858Z,9.80
2018-12-01T09:57:47.431Z,10.00
2018-12-01T10:00:17.265Z,10.00
2018-12-01T10:02:46.552Z,10.00
2018-12-01T10:05:17.316Z,10.00
2018-12-01T10:07:45.871Z,10.10
2018-12-01T10:10:16.470Z,10.30
2018-12-01T10:12:45.709Z,10.20
2018-12-01T10:15:15.747Z,10.20
2018-12-01T10:17:44.252Z,10.20
2018-12-01T10:20:15.115Z,10.10
2018-12-01T10:22:43.644Z,10.00
2018-12-01T10:25:13.670Z,9.90
2018-12-01T10:27:42.280Z,9.90
2018-12-01T10:30:15.759Z,9.80
2018-12-01T10:32:44.306Z,9.70
2018-12-01T10:35:18.279Z,9.70
2018-12-01T10:37:48.547Z,9.70
2018-12-01T10:40:17.063Z,9.70
2018-12-01T10:42:45.633Z,9.60
2018-12-01T10:45:17.291Z,9.70
2018-12-01T10:47:46.380Z,9.70
2018-12-01T10:50:17.721Z,9.80
2018-12-01T10:52:46.883Z,9.70
2018-12-01T10:55:26.745Z,9.60
2018-12-01T10:57:56.787Z,9.60
2018-12-01T11:00:30.599Z,9.70
2018-12-01T11:03:04.515Z,9.80
2018-12-01T11:05:34.072Z,10.00
2018-12-01T11:08:02.788Z,10.20
2018-12-01T11:10:31.332Z,10.30
2018-12-01T11:12:59.831Z,10.40
2018-12-01T11:15:28.342Z,10.30
2018-12-01T11:17:56.863Z,10.30
2018-12-01T11:20:25.391Z,10.30
2018-12-01T11:22:57.931Z,10.30
2018-12-01T11:25:22.495Z,10.20
2018-12-01T11:27:51.316Z,10.30
2018-12-01T11:30:20.106Z,10.30
2018-12-01T11:32:48.822Z,10.40
2018-12-01T11:35:17.339Z,10.50
2018-12-01T11:37:45.903Z,10.60
2018-12-01T11:40:16.763Z,10.70
2018-12-01T11:42:45.655Z,10.70
2018-12-01T11:45:16.209Z,10.80
2018-12-01T11:47:44.797Z,10.80
2018-12-01T11:50:17.255Z,10.90
2018-12-01T11:52:47.123Z,10.90
2018-12-01T11:55:22.796Z,11.00
2018-12-01T11:57:52.396Z,11.00
2018-12-01T12:00:23.038Z,11.00
2018-12-01T12:02:51.593Z,11.00
2018-12-01T12:05:20.122Z,11.30
2018-12-01T12:08:00.025Z,11.40
2018-12-01T12:10:28.638Z,11.60
2018-12-01T12:12:57.223Z,11.50
2018-12-01T12:15:26.534Z,11.30
2018-12-01T12:17:56.802Z,11.10
2018-12-01T12:20:25.357Z,11.20
2018-12-01T12:22:54.052Z,11.10
2018-12-01T12:25:22.591Z,11.10
2018-12-01T12:27:51.661Z,10.80
2018-12-01T12:30:23.376Z,11.00
2018-12-01T12:32:50.179Z,10.90
2018-12-01T12:35:19.089Z,10.90
2018-12-01T12:37:47.671Z,10.90
2018-12-01T12:40:24.803Z,11.00
2018-12-01T12:42:55.319Z,10.80
2018-12-01T12:45:24.103Z,10.70
2018-12-01T12:47:52.681Z,10.70
2018-12-01T12:50:21.460Z,10.70
2018-12-01T12:52:51.101Z,10.70
2018-12-01T12:55:20.808Z,10.60
2018-12-01T12:57:49.391Z,10.60
2018-12-01T13:00:19.058Z,10.70
2018-12-01T13:02:48.911Z,10.70
2018-12-01T13:05:18.996Z,10.70
2018-12-01T13:07:47.832Z,10.80
2018-12-01T13:10:18.526Z,10.70
2018-12-01T13:12:47.347Z,10.80
2018-12-01T13:15:16.544Z,10.80
2018-12-01T13:17:45.642Z,10.70
2018-12-01T13:20:18.132Z,10.60
2018-12-01T13:22:47.921Z,10.50
2018-12-01T13:25:16.794Z,10.50
2018-12-01T13:27:48.287Z,10.40
2018-12-01T13:30:18.475Z,10.50
2018-12-01T13:32:47.107Z,10.60
2018-12-01T13:35:15.679Z,10.60
2018-12-01T13:37:44.263Z,10.40
2018-12-01T13:40:13.921Z,10.40
2018-12-01T13:42:43.175Z,10.30
2018-12-01T13:45:19.709Z,10.30
2018-12-01T13:47:49.648Z,10.30
2018-12-01T13:50:19.372Z,10.20
2018-12-01T13:53:01.203Z,10.10
2018-12-01T13:55:29.757Z,10.20
2018-12-01T13:57:58.343Z,10.20
2018-12-01T14:00:27.703Z,10.20
2018-12-01T14:02:56.272Z,10.40
2018-12-01T14:05:24.802Z,10.40
2018-12-01T14:07:53.383Z,10.30
2018-12-01T14:10:25.462Z,10.50
2018-12-01T14:12:55.561Z,10.60
2018-12-01T14:15:24.863Z,10.60
2018-12-01T14:17:53.448Z,10.60
2018-12-01T14:20:22.194Z,10.60
2018-12-01T14:22:51.240Z,10.40
2018-12-01T14:25:21.039Z,10.40
2018-12-01T14:27:52.285Z,10.40
2018-12-01T14:30:20.803Z,10.30
2018-12-01T14:32:49.340Z,10.40
2018-12-01T14:35:25.840Z,10.40
2018-12-01T14:37:58.819Z,10.40
2018-12-01T14:40:27.313Z,10.40
2018-12-01T14:42:55.846Z,10.40
2018-12-01T14:45:24.348Z,10.40
2018-12-01T14:47:52.884Z,10.40
2018-12-01T14:50:21.397Z,10.40
2018-12-01T14:52:49.939Z,10.30
2018-12-01T14:55:18.652Z,10.20
2018-12-01T14:57:47.799Z,10.10
2018-12-01T15:00:20.243Z,10.10
2018-12-01T15:02:49.478Z,10.10
2018-12-01T15:05:18.084Z,10.00
2018-12-01T15:07:47.566Z,10.00
2018-12-01T15:10:18.104Z,10.00
2018-12-01T15:12:46.653Z,9.90
2018-12-01T15:15:17.667Z,10.00
2018-12-01T15:17:44.963Z,10.00
2018-12-01T15:20:15.592Z,10.00
2018-12-01T15:22:45.336Z,9.90
2018-12-01T15:25:16.067Z,9.90
2018-12-01T15:27:44.783Z,9.80
2018-12-01T15:30:21.112Z,9.80
2018-12-01T15:33:03.669Z,9.80
2018-12-01T15:35:32.219Z,9.80
2018-12-01T15:38:00.781Z,9.80
2018-12-01T15:40:29.319Z,9.80
2018-12-01T15:42:57.889Z,9.80
2018-12-01T15:45:26.466Z,9.80
2018-12-01T15:47:55.067Z,9.90
2018-12-01T15:50:23.626Z,9.80
2018-12-01T15:52:53.840Z,9.70
2018-12-01T15:55:23.362Z,9.80
2018-12-01T15:57:52.144Z,9.60
2018-12-01T16:00:25.108Z,9.60
2018-12-01T16:02:53.832Z,9.60
2018-12-01T16:05:23.538Z,9.60
2018-12-01T16:07:54.043Z,9.50
2018-12-01T16:10:23.478Z,9.60
2018-12-01T16:12:54.601Z,9.50
2018-12-01T16:15:25.627Z,9.60
2018-12-01T16:17:54.266Z,9.80
2018-12-01T16:20:22.871Z,9.70
2018-12-01T16:22:51.489Z,9.60
2018-12-01T16:25:21.506Z,9.70
2018-12-01T16:27:50.092Z,9.60
2018-12-01T16:30:24.746Z,9.60
2018-12-01T16:32:56.785Z,9.50
2018-12-01T16:35:25.363Z,9.60
2018-12-01T16:37:54.022Z,9.70
2018-12-01T16:40:25.308Z,9.60
2018-12-01T16:42:54.815Z,9.60
2018-12-01T16:45:23.387Z,9.60
2018-12-01T16:47:51.997Z,9.50
2018-12-01T16:50:20.586Z,9.50
2018-12-01T16:52:49.131Z,9.40
2018-12-01T16:55:18.111Z,9.40
2018-12-01T16:57:46.681Z,9.40
2018-12-01T17:00:17.423Z,9.20
2018-12-01T17:02:47.462Z,9.30
2018-12-01T17:05:17.990Z,9.20
2018-12-01T17:07:47.001Z,9.10
2018-12-01T17:10:20.502Z,9.20
2018-12-01T17:12:51.351Z,9.20
2018-12-01T17:15:21.464Z,9.20
2018-12-01T17:17:50.094Z,9.10
2018-12-01T17:20:19.228Z,9.00
2018-12-01T17:22:54.380Z,8.90
2018-12-01T17:25:22.944Z,9.00
2018-12-01T17:27:52.561Z,9.10
2018-12-01T17:30:23.184Z,9.10
2018-12-01T17:32:52.609Z,9.10
2018-12-01T17:35:23.418Z,9.00
2018-12-01T17:37:54.317Z,8.90
2018-12-01T17:40:27.764Z,9.00
2018-12-01T17:42:57.591Z,9.00
2018-12-01T17:45:26.311Z,8.90
2018-12-01T17:47:54.969Z,9.00
2018-12-01T17:50:23.919Z,8.90
2018-12-01T17:52:55.995Z,8.90
2018-12-01T17:55:26.071Z,9.00
2018-12-01T17:57:55.179Z,9.00
2018-12-01T18:00:26.272Z,9.00
2018-12-01T18:02:56.523Z,9.00
2018-12-01T18:05:44.675Z,9.00
2018-12-01T18:08:15.627Z,9.00
2018-12-01T18:10:44.871Z,9.10
2018-12-01T18:13:13.443Z,8.90
2018-12-01T18:15:42.620Z,8.90
2018-12-01T18:18:11.196Z,9.00
2018-12-01T18:20:39.749Z,9.10
2018-12-01T18:23:10.117Z,9.10
2018-12-01T18:25:43.662Z,9.10
2018-12-01T18:28:14.202Z,9.00
2018-12-01T18:30:42.856Z,9.10
2018-12-01T18:33:13.831Z,9.20
2018-12-01T18:35:43.007Z,9.20
2018-12-01T18:38:12.163Z,9.20
2018-12-01T18:40:41.284Z,9.10
2018-12-01T18:43:10.679Z,9.10
2018-12-01T18:45:41.650Z,9.10
2018-12-01T18:48:10.207Z,9.10
2018-12-01T18:50:39.205Z,9.20
2018-12-01T18:53:09.100Z,9.20
2018-12-01T18:55:39.370Z,9.20
2018-12-01T18:58:09.511Z,9.20
2018-12-01T19:00:43.861Z,9.20
2018-12-01T19:03:12.424Z,9.20
2018-12-01T19:05:40.968Z,9.20
2018-12-01T19:08:09.584Z,9.20
2018-12-01T19:10:38.163Z,9.20
2018-12-01T19:13:08.248Z,9.30
2018-12-01T19:15:38.017Z,9.30
2018-12-01T19:18:07.579Z,9.30
2018-12-01T19:20:36.511Z,9.20
2018-12-01T19:23:06.417Z,9.10
2018-12-01T19:25:35.000Z,9.10
2018-12-01T19:28:03.741Z,9.10
2018-12-01T19:30:32.292Z,9.10
2018-12-01T19:33:06.744Z,9.00
2018-12-01T19:35:35.306Z,9.10
2018-12-01T19:38:04.001Z,9.10
2018-12-01T19:40:33.955Z,9.00
2018-12-01T19:43:03.210Z,9.10
2018-12-01T19:45:32.775Z,9.10
2018-12-01T19:48:01.383Z,9.20
2018-12-01T19:50:35.375Z,9.20
2018-12-01T19:53:04.322Z,9.10
2018-12-01T19:55:33.245Z,9.20
2018-12-01T19:58:03.795Z,9.40
2018-12-01T20:00:32.383Z,9.30
2018-12-01T20:03:02.514Z,9.30
2018-12-01T20:05:31.307Z,9.40
2018-12-01T20:08:00.729Z,9.30
2018-12-01T20:10:34.011Z,9.30
2018-12-01T20:13:08.440Z,9.30
2018-12-01T20:15:38.714Z,9.40
2018-12-01T20:18:13.453Z,9.40
2018-12-01T20:20:41.264Z,9.30
2018-12-01T20:23:09.814Z,9.30
2018-12-01T20:25:38.392Z,9.30
2018-12-01T20:28:07.492Z,9.40
2018-12-01T20:30:36.199Z,9.30
2018-12-01T20:33:04.830Z,9.20
2018-12-01T20:35:39.819Z,9.20
2018-12-01T20:38:17.180Z,9.20
2018-12-01T20:40:45.703Z,9.10
2018-12-01T20:43:14.364Z,9.10
2018-12-01T20:45:43.964Z,9.20
2018-12-01T20:48:12.721Z,9.20
2018-12-01T20:50:41.287Z,9.20
2018-12-01T20:53:10.443Z,9.20
2018-12-01T20:55:40.872Z,9.20
2018-12-01T20:58:09.453Z,9.20
2018-12-01T21:00:38.124Z,9.10
2018-12-01T21:03:06.703Z,9.10
2018-12-01T21:05:35.255Z,9.10
2018-12-01T21:08:03.858Z,9.10
2018-12-01T21:10:34.458Z,9.00
2018-12-01T21:13:03.659Z,8.80
2018-12-01T21:15:32.308Z,8.80
2018-12-01T21:18:00.839Z,8.70
2018-12-01T21:20:29.384Z,8.70
2018-12-01T21:22:57.912Z,8.60
2018-12-01T21:25:27.577Z,8.70
2018-12-01T21:27:57.883Z,8.60
2018-12-01T21:30:27.515Z,8.70
2018-12-01T21:32:59.588Z,8.70
2018-12-01T21:35:28.174Z,8.70
2018-12-01T21:37:56.936Z,8.50
2018-12-01T21:40:25.485Z,8.50
2018-12-01T21:42:54.000Z,8.50
2018-12-01T21:45:22.675Z,8.40
2018-12-01T21:47:51.202Z,8.30
2018-12-01T21:50:21.208Z,8.30
2018-12-01T21:52:51.531Z,8.30
2018-12-01T21:55:20.163Z,8.40
2018-12-01T21:57:49.424Z,8.30
2018-12-01T22:00:19.548Z,8.40
2018-12-01T22:02:51.865Z,8.40
2018-12-01T22:05:22.128Z,8.40
2018-12-01T22:07:50.693Z,8.40
2018-12-01T22:10:20.003Z,8.40
2018-12-01T22:12:49.279Z,8.30
2018-12-01T22:15:19.395Z,8.30
2018-12-01T22:17:48.137Z,8.40
2018-12-01T22:20:21.757Z,8.20
2018-12-01T22:22:51.109Z,8.30
2018-12-01T22:25:19.858Z,8.40
2018-12-01T22:27:49.835Z,8.40
2018-12-01T22:30:20.655Z,8.30
2018-12-01T22:32:50.889Z,8.40
2018-12-01T22:35:20.864Z,8.40
2018-12-01T22:37:49.788Z,8.40
2018-12-01T22:40:24.214Z,8.50
2018-12-01T22:42:55.374Z,8.40
2018-12-01T22:45:24.156Z,8.40
2018-12-01T22:47:52.671Z,8.40
2018-12-01T22:50:22.117Z,8.50
2018-12-01T22:52:51.643Z,8.50
2018-12-01T22:55:26.484Z,8.50
2018-12-01T22:58:00.759Z,8.50
2018-12-01T23:00:39.803Z,8.50
2018-12-01T23:03:08.882Z,8.40
2018-12-01T23:05:37.600Z,8.60
2018-12-01T23:08:08.023Z,8.60
2018-12-01T23:10:36.600Z,8.50
2018-12-01T23:13:05.643Z,8.50
2018-12-01T23:15:34.211Z,8.60
2018-12-01T23:18:02.748Z,8.50
2018-12-01T23:20:31.297Z,8.50
2018-12-01T23:22:59.812Z,8.60
2018-12-01T23:25:28.398Z,8.60
2018-12-01T23:27:56.941Z,8.70
2018-12-01T23:30:29.324Z,8.60
2018-12-01T23:33:04.339Z,8.60
2018-12-01T23:35:32.993Z,8.60
2018-12-01T23:38:01.533Z,8.60
2018-12-01T23:40:30.094Z,8.50
2018-12-01T23:42:58.595Z,8.50
2018-12-01T23:45:27.166Z,8.50
2018-12-01T23:47:55.709Z,8.60
2018-12-01T23:50:25.459Z,8.60
2018-12-01T23:52:59.495Z,8.60
2018-12-01T23:55:28.043Z,8.60
2018-12-01T23:57:56.566Z,8.60
